Time;durP1;ratioP1;P1;durP2;ratioP2;P2;SDS_P1;SDS_P2;PMS_P1;PMS_P2;Temp;Humidity;BMP_temperature;BMP_pressure;BME280_temperature;BME280_humidity;BME280_pressure;Samples;Min_cycle;Max_cycle;Signal;HPM_P1;HPM_P2
2022/10/26 00:01:27;;;;;;;1999.90;999.90;;;13.40;99.90;;;;;;5054804;28;20412;-66
2022/10/26 00:03:55;;;;;;;1999.90;999.90;;;13.40;99.90;;;;;;5054791;28;20422;-66
2022/10/26 00:06:29;;;;;;;1999.90;999.90;;;13.40;99.90;;;;;;5054775;28;20204;-66
2022/10/26 00:08:56;;;;;;;1999.90;999.90;;;13.50;99.90;;;;;;5054470;28;20894;-66
2022/10/26 00:11:22;;;;;;;1999.90;999.90;;;13.50;99.90;;;;;;5054652;28;20399;-66
2022/10/26 00:13:48;;;;;;;1999.90;999.90;;;13.50;99.90;;;;;;5054581;28;20412;-66
2022/10/26 00:16:23;;;;;;;1999.90;999.90;;;13.50;99.90;;;;;;5054535;28;20748;-66
2022/10/26 00:18:49;;;;;;;1999.90;999.90;;;13.50;99.90;;;;;;5054415;28;20796;-66
2022/10/26 00:21:15;;;;;;;1999.90;999.90;;;13.50;99.90;;;;;;5054482;28;20413;-66
2022/10/26 00:23:40;;;;;;;1999.90;999.90;;;13.50;99.90;;;;;;5054499;28;20463;-66
2022/10/26 00:26:07;;;;;;;1999.90;999.90;;;13.40;99.90;;;;;;5054663;28;20421;-66
2022/10/26 00:28:33;;;;;;;1999.90;999.90;;;13.40;99.90;;;;;;5053812;28;20266;-66
2022/10/26 00:31:04;;;;;;;1999.90;999.90;;;13.40;99.90;;;;;;5054531;28;20773;-66
2022/10/26 00:33:30;;;;;;;1999.90;999.90;;;13.40;99.90;;;;;;5054282;28;20442;-66
2022/10/26 00:35:56;;;;;;;1999.90;999.90;;;13.40;99.90;;;;;;5054301;28;20901;-67
2022/10/26 00:38:21;;;;;;;1999.90;999.90;;;13.50;99.90;;;;;;5053902;28;20412;-66
2022/10/26 00:40:47;;;;;;;1999.90;999.90;;;13.50;99.90;;;;;;5054049;28;20172;-66
2022/10/26 00:43:34;;;;;;;1999.90;999.90;;;13.50;99.90;;;;;;5054088;28;20254;-66
2022/10/26 00:46:01;;;;;;;1999.90;999.90;;;13.40;99.90;;;;;;5054177;28;20914;-66
2022/10/26 00:48:33;;;;;;;1999.90;999.90;;;13.40;99.90;;;;;;5053614;28;20480;-66
2022/10/26 00:51:01;;;;;;;1999.90;999.90;;;13.40;99.90;;;;;;5053915;28;20401;-66
2022/10/26 00:53:28;;;;;;;1999.90;999.90;;;13.50;99.90;;;;;;5053678;28;20411;-66
2022/10/26 00:55:55;;;;;;;1999.90;999.90;;;13.50;99.90;;;;;;5053095;28;20782;-66
2022/10/26 00:58:22;;;;;;;1999.90;999.90;;;13.50;99.90;;;;;;5053360;28;20401;-66
2022/10/26 01:00:48;;;;;;;1999.90;999.90;;;13.40;99.90;;;;;;5053883;28;20500;-66
2022/10/26 01:03:15;;;;;;;1999.90;999.90;;;13.50;99.90;;;;;;5053641;28;20835;-66
2022/10/26 01:05:44;;;;;;;1999.90;999.90;;;13.50;99.90;;;;;;5053628;28;20847;-66
2022/10/26 01:08:11;;;;;;;1999.90;999.90;;;13.50;99.90;;;;;;5053177;28;20857;-66
2022/10/26 01:10:39;;;;;;;1999.90;999.90;;;13.40;99.90;;;;;;5053394;28;20417;-67
2022/10/26 01:13:05;;;;;;;1999.90;999.90;;;13.40;99.90;;;;;;5053471;28;20432;-66
2022/10/26 01:15:56;;;;;;;1999.90;999.90;;;13.40;99.90;;;;;;5053463;28;20430;-66
2022/10/26 01:18:46;;;;;;;1999.90;999.90;;;13.40;99.90;;;;;;5053133;28;20400;-67
2022/10/26 01:21:39;;;;;;;1999.90;999.90;;;13.40;99.90;;;;;;5053379;28;20449;-66
2022/10/26 01:24:38;;;;;;;1999.90;999.90;;;13.40;99.90;;;;;;5053343;28;20408;-66
2022/10/26 01:27:25;;;;;;;1999.90;999.90;;;13.40;99.90;;;;;;5053015;28;20397;-66
2022/10/26 01:30:20;;;;;;;1999.90;999.90;;;13.50;99.90;;;;;;5053080;28;20426;-66
2022/10/26 01:33:01;;;;;;;1999.90;999.90;;;13.50;99.90;;;;;;5053232;28;20404;-66
2022/10/26 01:35:52;;;;;;;1999.90;999.90;;;13.50;99.90;;;;;;5053014;28;20400;-66
2022/10/26 01:38:33;;;;;;;1999.90;999.90;;;13.40;99.90;;;;;;5047075;28;20424;-66
2022/10/26 01:41:19;;;;;;;1999.90;999.90;;;13.40;99.90;;;;;;5052990;28;20448;-66
2022/10/26 01:44:02;;;;;;;1999.90;999.90;;;13.40;99.90;;;;;;5052919;28;20467;-66
2022/10/26 01:46:32;;;;;;;1999.90;999.90;;;13.40;99.90;;;;;;5052730;28;20440;-66
2022/10/26 01:49:04;;;;;;;1999.90;999.90;;;13.40;99.90;;;;;;5052536;28;20495;-66
2022/10/26 01:51:31;;;;;;;1999.90;999.90;;;13.40;99.90;;;;;;5052771;28;20411;-66
2022/10/26 01:53:57;;;;;;;1999.90;999.90;;;13.40;99.90;;;;;;5052710;28;20397;-66
2022/10/26 01:56:27;;;;;;;1999.90;999.90;;;13.50;99.90;;;;;;5052489;28;20478;-66
2022/10/26 01:59:10;;;;;;;1999.90;999.90;;;13.50;99.90;;;;;;5052124;28;20212;-66
2022/10/26 02:01:53;;;;;;;1999.90;999.90;;;13.50;99.90;;;;;;5052575;28;20771;-66
2022/10/26 02:04:22;;;;;;;1999.90;999.90;;;13.60;99.90;;;;;;5052415;28;20476;-67
2022/10/26 02:06:57;;;;;;;1999.90;999.90;;;13.60;99.90;;;;;;5052249;28;20926;-66
2022/10/26 02:09:28;;;;;;;1999.90;999.90;;;13.60;99.90;;;;;;5052198;28;20834;-66
2022/10/26 02:11:55;;;;;;;1999.90;999.90;;;13.70;99.90;;;;;;5052495;28;20408;-66
2022/10/26 02:14:39;;;;;;;1999.90;999.90;;;13.70;99.90;;;;;;5052190;28;20498;-66
2022/10/26 02:17:10;;;;;;;1999.90;999.90;;;13.70;99.90;;;;;;5052170;28;20933;-66
2022/10/26 02:20:00;;;;;;;1999.90;999.90;;;13.70;99.90;;;;;;5052110;28;20417;-65
2022/10/26 02:22:44;;;;;;;1999.90;999.90;;;13.60;99.90;;;;;;5051711;28;20815;-66
2022/10/26 02:25:16;;;;;;;1999.90;999.90;;;13.60;99.90;;;;;;5052234;28;20392;-66
2022/10/26 02:27:48;;;;;;;1999.90;999.90;;;13.60;99.90;;;;;;5051747;28;20522;-66
2022/10/26 02:30:13;;;;;;;1999.90;999.90;;;13.60;99.90;;;;;;5052055;28;20436;-66
2022/10/26 02:32:45;;;;;;;1999.90;999.90;;;13.60;99.90;;;;;;5052052;28;20405;-65
2022/10/26 02:35:13;;;;;;;1999.90;999.90;;;13.60;99.90;;;;;;5052037;28;20164;-66
2022/10/26 02:37:40;;;;;;;1999.90;999.90;;;13.60;99.90;;;;;;5051581;28;20408;-66
2022/10/26 02:40:11;;;;;;;1999.90;999.90;;;13.70;99.90;;;;;;5051894;28;20943;-66
2022/10/26 02:42:40;;;;;;;1999.90;999.90;;;13.70;99.90;;;;;;5051951;28;20409;-66
2022/10/26 02:45:11;;;;;;;1999.90;999.90;;;13.70;99.90;;;;;;5051718;28;20443;-66
2022/10/26 02:47:36;;;;;;;1999.90;999.90;;;13.70;99.90;;;;;;5051565;28;20465;-66
2022/10/26 02:50:03;;;;;;;1999.90;999.90;;;13.70;99.90;;;;;;5051710;28;20427;-67
2022/10/26 02:52:56;;;;;;;1999.90;999.90;;;13.70;99.90;;;;;;5051634;28;20177;-67
2022/10/26 02:55:31;;;;;;;1999.90;999.90;;;13.70;99.90;;;;;;5051849;28;20781;-67
2022/10/26 02:58:01;;;;;;;1999.90;999.90;;;13.70;99.90;;;;;;5051602;28;20473;-66
2022/10/26 03:00:28;;;;;;;1999.90;999.90;;;13.80;99.90;;;;;;5051704;28;20446;-67
2022/10/26 03:02:57;;;;;;;1999.90;999.90;;;13.70;99.90;;;;;;5051757;28;20500;-67
2022/10/26 03:05:28;;;;;;;1999.90;999.90;;;13.70;99.90;;;;;;5051840;28;20412;-66
2022/10/26 03:07:54;;;;;;;1999.90;999.90;;;13.70;99.90;;;;;;5051410;28;20453;-66
2022/10/26 03:10:20;;;;;;;1999.90;999.90;;;13.70;99.90;;;;;;5051847;28;20794;-66
2022/10/26 03:12:46;;;;;;;1999.90;999.90;;;13.80;99.90;;;;;;5051717;28;20400;-66
2022/10/26 03:15:12;;;;;;;1999.90;999.90;;;13.80;99.90;;;;;;5051620;28;20837;-66
2022/10/26 03:17:38;;;;;;;1999.90;999.90;;;13.80;99.90;;;;;;5051139;28;20636;-65
2022/10/26 03:20:04;;;;;;;1999.90;999.90;;;13.80;99.90;;;;;;5054995;28;20190;-66
2022/10/26 03:22:29;;;;;;;1999.90;999.90;;;13.80;99.90;;;;;;5055514;28;20982;-66
2022/10/26 03:24:55;;;;;;;1999.90;999.90;;;13.90;99.90;;;;;;5055397;28;20499;-66
2022/10/26 03:27:21;;;;;;;1999.90;999.90;;;13.90;99.90;;;;;;5055250;28;20175;-66
2022/10/26 03:29:47;;;;;;;1999.90;999.90;;;13.90;99.90;;;;;;5055271;28;20211;-66
2022/10/26 03:32:12;;;;;;;1999.90;999.90;;;13.90;99.90;;;;;;5055395;28;20420;-66
2022/10/26 03:34:38;;;;;;;1999.90;999.90;;;13.90;99.90;;;;;;5055571;28;20183;-66
2022/10/26 03:37:03;;;;;;;1999.90;999.90;;;13.90;99.90;;;;;;5055088;28;20170;-66
2022/10/26 03:39:29;;;;;;;1999.90;999.90;;;13.90;99.90;;;;;;5055132;28;20691;-66
2022/10/26 03:41:55;;;;;;;1999.90;999.90;;;13.90;99.90;;;;;;5055253;28;20361;-66
2022/10/26 03:44:21;;;;;;;1999.90;999.90;;;13.90;99.90;;;;;;5055173;28;20179;-66
2022/10/26 03:46:47;;;;;;;1999.90;999.90;;;13.90;99.90;;;;;;5054905;28;20634;-66
2022/10/26 03:49:12;;;;;;;1999.90;999.90;;;13.90;99.90;;;;;;5054822;28;20602;-66
2022/10/26 03:51:38;;;;;;;1999.90;999.90;;;13.90;99.90;;;;;;5054962;28;20536;-67
2022/10/26 03:54:05;;;;;;;1999.90;999.90;;;14.00;99.90;;;;;;5055073;28;20174;-66
2022/10/26 03:56:30;;;;;;;1999.90;999.90;;;14.00;99.90;;;;;;5054845;28;20254;-66
2022/10/26 03:58:56;;;;;;;1999.90;999.90;;;14.00;99.90;;;;;;5054504;28;20489;-66
2022/10/26 04:01:22;;;;;;;1999.90;999.90;;;14.00;99.90;;;;;;5055077;28;20180;-67
2022/10/26 04:03:47;;;;;;;1999.90;999.90;;;14.00;99.90;;;;;;5054855;28;20187;-66
2022/10/26 04:06:13;;;;;;;1999.90;999.90;;;14.10;99.90;;;;;;5054671;28;20195;-66
2022/10/26 04:08:39;;;;;;;1999.90;999.90;;;14.10;99.90;;;;;;5054309;28;20340;-66
2022/10/26 04:11:04;;;;;;;1999.90;999.90;;;14.10;99.90;;;;;;5054658;28;20537;-66
2022/10/26 04:13:30;;;;;;;1999.90;999.90;;;14.10;99.90;;;;;;5054612;28;20654;-65
2022/10/26 04:15:56;;;;;;;1999.90;999.90;;;14.10;99.90;;;;;;5054475;28;20164;-65
2022/10/26 04:18:21;;;;;;;1999.90;999.90;;;14.10;99.90;;;;;;5054269;28;20236;-65
2022/10/26 04:20:47;;;;;;;1999.90;999.90;;;14.10;99.90;;;;;;5054414;28;20177;-65
2022/10/26 04:23:14;;;;;;;1999.90;999.90;;;14.10;99.90;;;;;;5054444;28;20543;-66
2022/10/26 04:25:41;;;;;;;1999.90;999.90;;;14.10;99.90;;;;;;5054354;28;20169;-66
2022/10/26 04:28:07;;;;;;;1999.90;999.90;;;14.10;99.90;;;;;;5053945;28;20539;-66
2022/10/26 04:30:34;;;;;;;1999.90;999.90;;;14.20;99.90;;;;;;5053305;28;20430;-66
2022/10/26 04:33:00;;;;;;;1999.90;999.90;;;14.20;99.90;;;;;;5054274;28;20491;-67
2022/10/26 04:35:26;;;;;;;1999.90;999.90;;;14.30;99.90;;;;;;5054282;28;20397;-65
2022/10/26 04:38:04;;;;;;;1999.90;999.90;;;14.30;99.90;;;;;;5053892;28;20406;-66
2022/10/26 04:40:31;;;;;;;1999.90;999.90;;;14.30;99.90;;;;;;5054081;28;20465;-66
2022/10/26 04:42:57;;;;;;;1999.90;999.90;;;14.40;99.90;;;;;;5054305;28;20989;-66
2022/10/26 04:45:24;;;;;;;1999.90;999.90;;;14.40;99.90;;;;;;5053991;28;20453;-66
2022/10/26 04:48:18;;;;;;;1999.90;999.90;;;14.40;99.90;;;;;;5053744;28;20609;-66
2022/10/26 04:50:44;;;;;;;1999.90;999.90;;;14.40;99.90;;;;;;5045034;28;20430;-66
2022/10/26 04:53:10;;;;;;;1999.90;999.90;;;14.50;99.90;;;;;;5053876;28;20416;-66
2022/10/26 04:55:36;;;;;;;1999.90;999.90;;;14.50;99.90;;;;;;5053817;28;20896;-66
2022/10/26 04:58:02;;;;;;;1999.90;999.90;;;14.60;99.90;;;;;;5053315;28;20179;-65
2022/10/26 05:00:29;;;;;;;1999.90;999.90;;;14.60;99.90;;;;;;5053688;28;20221;-65
2022/10/26 05:03:01;;;;;;;1999.90;999.90;;;14.60;99.90;;;;;;5053681;28;20418;-66
2022/10/26 05:05:28;;;;;;;1999.90;999.90;;;14.70;99.90;;;;;;5053631;28;20431;-66
2022/10/26 05:07:55;;;;;;;1999.90;999.90;;;14.70;99.90;;;;;;5053233;28;20524;-66
2022/10/26 05:10:21;;;;;;;1999.90;999.90;;;14.70;99.90;;;;;;5053484;28;20428;-65
2022/10/26 05:12:58;;;;;;;1999.90;999.90;;;14.60;99.90;;;;;;5053481;28;20408;-65
2022/10/26 05:15:23;;;;;;;1999.90;999.90;;;14.60;99.90;;;;;;5053471;28;20410;-67
2022/10/26 05:17:56;;;;;;;1999.90;999.90;;;14.60;99.90;;;;;;5053087;28;20494;-66
2022/10/26 05:20:28;;;;;;;1999.90;999.90;;;14.60;99.90;;;;;;5053565;28;20233;-66
2022/10/26 05:22:54;;;;;;;1999.90;999.90;;;14.60;99.90;;;;;;5053353;28;20415;-65
2022/10/26 05:25:19;;;;;;;1999.90;999.90;;;14.70;99.90;;;;;;5053435;28;20848;-65
2022/10/26 05:27:45;;;;;;;1999.90;999.90;;;14.70;99.90;;;;;;5052912;28;20545;-66
2022/10/26 05:30:12;;;;;;;1999.90;999.90;;;14.80;99.90;;;;;;5053156;28;20187;-66
2022/10/26 05:32:37;;;;;;;1999.90;999.90;;;14.80;99.90;;;;;;5053101;28;20219;-66
2022/10/26 05:35:03;;;;;;;1999.90;999.90;;;14.70;99.90;;;;;;5053024;28;20437;-66
2022/10/26 05:37:29;;;;;;;1999.90;999.90;;;14.80;99.90;;;;;;5052824;28;20172;-66
2022/10/26 05:39:54;;;;;;;1999.90;999.90;;;14.80;99.90;;;;;;5052810;28;20827;-66
2022/10/26 05:42:20;;;;;;;1999.90;999.90;;;14.80;99.90;;;;;;5052638;28;20178;-66
2022/10/26 05:44:46;;;;;;;1999.90;999.90;;;14.80;99.90;;;;;;5052928;28;20796;-66
2022/10/26 05:47:11;;;;;;;1999.90;999.90;;;14.90;99.90;;;;;;5052414;28;20195;-66
2022/10/26 05:49:37;;;;;;;1999.90;999.90;;;14.90;99.90;;;;;;5052634;28;20206;-65
2022/10/26 05:52:03;;;;;;;1999.90;999.90;;;15.00;99.90;;;;;;5052794;28;20258;-65
2022/10/26 05:54:28;;;;;;;1999.90;999.90;;;15.00;99.90;;;;;;5052883;28;20193;-65
2022/10/26 05:56:54;;;;;;;1999.90;999.90;;;15.00;99.90;;;;;;5052428;28;20901;-66
2022/10/26 05:59:20;;;;;;;1999.90;999.90;;;14.90;99.90;;;;;;5052456;28;20203;-66
2022/10/26 06:01:49;;;;;;;1999.90;999.90;;;15.00;99.90;;;;;;5052436;28;20498;-66
2022/10/26 06:04:43;;;;;;;1999.90;999.90;;;15.00;99.90;;;;;;5052576;28;20403;-66
2022/10/26 06:07:12;;;;;;;1999.90;999.90;;;14.90;99.90;;;;;;5052406;28;20405;-65
2022/10/26 06:09:39;;;;;;;1999.90;999.90;;;14.90;99.90;;;;;;5052338;28;20485;-66
2022/10/26 06:12:08;;;;;;;1999.90;999.90;;;15.00;99.90;;;;;;5052394;28;20483;-66
2022/10/26 06:14:35;;;;;;;1999.90;999.90;;;14.90;99.90;;;;;;5052673;28;20400;-66
2022/10/26 06:17:09;;;;;;;1999.90;999.90;;;14.90;99.90;;;;;;5052403;28;20405;-66
2022/10/26 06:19:41;;;;;;;1999.90;999.90;;;14.80;99.90;;;;;;5052276;28;20451;-65
2022/10/26 06:22:26;;;;;;;1999.90;999.90;;;14.70;99.90;;;;;;5052283;28;20899;-66
2022/10/26 06:25:06;;;;;;;1999.90;999.90;;;14.60;99.90;;;;;;5052663;28;20413;-66
2022/10/26 06:27:55;;;;;;;1999.90;999.90;;;14.60;99.90;;;;;;5051985;28;20419;-66
2022/10/26 06:30:22;;;;;;;1999.90;999.90;;;14.50;99.90;;;;;;5040996;28;20435;-66
2022/10/26 06:32:52;;;;;;;1999.90;999.90;;;14.50;99.90;;;;;;5052091;28;20408;-66
2022/10/26 06:35:33;;;;;;;1999.90;999.90;;;14.50;99.90;;;;;;5052044;28;20490;-66
2022/10/26 06:38:03;;;;;;;1999.90;999.90;;;14.50;99.90;;;;;;5051743;28;20515;-67
2022/10/26 06:40:32;;;;;;;1999.90;999.90;;;14.50;99.90;;;;;;5052110;28;20835;-66
2022/10/26 06:42:58;;;;;;;1999.90;999.90;;;14.40;99.90;;;;;;5052143;28;20417;-66
2022/10/26 06:45:24;;;;;;;1999.90;999.90;;;14.40;99.90;;;;;;5051938;28;20412;-65
2022/10/26 06:47:59;;;;;;;1999.90;999.90;;;14.40;99.90;;;;;;5051475;28;20802;-65
2022/10/26 06:50:57;;;;;;;1999.90;999.90;;;14.40;99.90;;;;;;5051845;28;20428;-67
2022/10/26 06:53:34;;;;;;;1999.90;999.90;;;14.50;99.90;;;;;;5049987;28;20418;-66
2022/10/26 06:56:01;;;;;;;1999.90;999.90;;;14.50;99.90;;;;;;5051810;28;20781;-66
2022/10/26 06:58:33;;;;;;;1999.90;999.90;;;14.50;99.90;;;;;;5051699;28;20431;-66
2022/10/26 07:00:59;;;;;;;1999.90;999.90;;;14.60;99.90;;;;;;5051829;28;20407;-66
2022/10/26 07:03:25;;;;;;;1999.90;999.90;;;14.60;99.90;;;;;;5051726;28;20453;-66
2022/10/26 07:05:51;;;;;;;1999.90;999.90;;;14.60;99.90;;;;;;5051456;28;20403;-65
2022/10/26 07:08:17;;;;;;;1999.90;999.90;;;14.60;99.90;;;;;;5051391;28;20656;-66
2022/10/26 07:10:42;;;;;;;1999.90;999.90;;;14.70;99.90;;;;;;5051689;28;20252;-66
2022/10/26 07:13:09;;;;;;;1999.90;999.90;;;14.70;99.90;;;;;;5051664;28;20483;-65
2022/10/26 07:15:36;;;;;;;1999.90;999.90;;;14.70;99.90;;;;;;5051629;28;20163;-66
2022/10/26 07:18:07;;;;;;;1999.90;999.90;;;14.80;99.90;;;;;;5051376;28;20444;-66
2022/10/26 07:20:37;;;;;;;1999.90;999.90;;;14.80;99.90;;;;;;5051578;28;20429;-66
2022/10/26 07:23:07;;;;;;;1999.90;999.90;;;14.70;99.90;;;;;;5051558;28;20412;-66
2022/10/26 07:25:34;;;;;;;1999.90;999.90;;;14.70;99.90;;;;;;5051774;28;20950;-67
2022/10/26 07:28:00;;;;;;;1999.90;999.90;;;14.70;99.90;;;;;;5051161;28;20461;-66
2022/10/26 07:30:27;;;;;;;1999.90;999.90;;;14.60;99.90;;;;;;5051455;28;20831;-66
2022/10/26 07:33:19;;;;;;;1999.90;999.90;;;14.70;99.90;;;;;;5051497;28;20238;-66
2022/10/26 07:35:44;;;;;;;1999.90;999.90;;;14.70;99.90;;;;;;5050380;28;20423;-67
2022/10/26 07:38:12;;;;;;;1999.90;999.90;;;14.70;99.90;;;;;;5051236;28;20796;-67
2022/10/26 07:40:37;;;;;;;1999.90;999.90;;;14.70;99.90;;;;;;5051380;28;20565;-66
2022/10/26 07:43:04;;;;;;;1999.90;999.90;;;14.70;99.90;;;;;;5051316;28;20438;-67
2022/10/26 07:45:29;;;;;;;1999.90;999.90;;;14.80;99.90;;;;;;5051380;28;20203;-67
2022/10/26 07:47:55;;;;;;;1999.90;999.90;;;14.80;99.90;;;;;;5050932;28;20964;-67
2022/10/26 07:50:22;;;;;;;1999.90;999.90;;;14.80;99.90;;;;;;5051290;28;20726;-67
2022/10/26 07:52:47;;;;;;;1999.90;999.90;;;14.80;99.90;;;;;;5051349;28;20400;-67
2022/10/26 07:55:13;;;;;;;1999.90;999.90;;;14.90;99.90;;;;;;5051049;28;20602;-66
2022/10/26 07:57:39;;;;;;;1999.90;999.90;;;15.00;99.90;;;;;;5050922;28;20202;-67
2022/10/26 08:00:07;;;;;;;1999.90;999.90;;;15.00;99.90;;;;;;5051033;28;20442;-67
2022/10/26 08:02:32;;;;;;;1999.90;999.90;;;15.10;99.90;;;;;;5051203;28;20170;-67
2022/10/26 08:04:58;;;;;;;1999.90;999.90;;;15.20;99.90;;;;;;5052639;28;21043;-67
2022/10/26 08:07:25;;;;;;;1999.90;999.90;;;15.30;99.90;;;;;;5054536;28;20222;-67
2022/10/26 08:09:51;;;;;;;1999.90;999.90;;;15.40;99.90;;;;;;5054331;28;20198;-67
2022/10/26 08:12:16;;;;;;;1999.90;999.90;;;15.40;99.90;;;;;;5054675;28;20464;-67
2022/10/26 08:14:42;;;;;;;1999.90;999.90;;;15.50;99.90;;;;;;5054639;28;20410;-67
2022/10/26 08:17:08;;;;;;;1999.90;999.90;;;15.60;99.90;;;;;;5054310;28;20187;-67
2022/10/26 08:19:34;;;;;;;1999.90;999.90;;;15.70;99.90;;;;;;5054354;28;20206;-67
2022/10/26 08:21:59;;;;;;;1999.90;999.90;;;15.90;99.90;;;;;;5054600;28;20246;-66
2022/10/26 08:24:25;;;;;;;1999.90;999.90;;;16.00;99.90;;;;;;5054439;28;20402;-66
2022/10/26 08:26:50;;;;;;;1999.90;999.90;;;16.10;99.90;;;;;;5054257;28;20178;-66
2022/10/26 08:29:16;;;;;;;1999.90;999.90;;;16.10;99.90;;;;;;5054087;28;20210;-66
2022/10/26 08:31:42;;;;;;;1999.90;999.90;;;16.20;99.90;;;;;;5054317;28;20224;-66
2022/10/26 08:34:08;;;;;;;1999.90;999.90;;;16.30;99.90;;;;;;5054277;28;20164;-66
2022/10/26 08:36:33;;;;;;;1999.90;999.90;;;16.30;99.90;;;;;;5053098;28;20696;-65
2022/10/26 08:38:59;;;;;;;1999.90;999.90;;;16.40;99.90;;;;;;5054030;28;20441;-66
2022/10/26 08:41:41;;;;;;;1999.90;999.90;;;16.50;99.90;;;;;;5054314;28;20179;-66
2022/10/26 08:44:22;;;;;;;1999.90;999.90;;;16.60;99.90;;;;;;5054019;28;20170;-66
2022/10/26 08:46:52;;;;;;;1999.90;999.90;;;16.60;99.90;;;;;;5054089;28;20849;-66
2022/10/26 08:49:25;;;;;;;1999.90;999.90;;;16.50;99.90;;;;;;5053869;28;20465;-66
2022/10/26 08:51:56;;;;;;;1999.90;999.90;;;16.50;99.90;;;;;;5054130;28;20975;-66
2022/10/26 08:54:29;;;;;;;1999.90;999.90;;;16.40;99.90;;;;;;5052147;28;20422;-66
2022/10/26 08:56:59;;;;;;;1999.90;999.90;;;16.40;99.90;;;;;;5053490;28;20445;-67
2022/10/26 08:59:37;;;;;;;1999.90;999.90;;;16.30;99.90;;;;;;5053372;28;20453;-66
2022/10/26 09:02:07;;;;;;;1999.90;999.90;;;16.20;99.90;;;;;;5053625;28;20410;-67
2022/10/26 09:04:34;;;;;;;1999.90;999.90;;;16.20;99.90;;;;;;5053694;28;20422;-67
2022/10/26 09:07:28;;;;;;;1999.90;999.90;;;16.30;99.90;;;;;;5053563;28;20413;-66
2022/10/26 09:10:22;;;;;;;1999.90;999.90;;;16.30;99.90;;;;;;5053332;28;20437;-67
2022/10/26 09:13:00;;;;;;;1999.90;999.90;;;16.40;99.90;;;;;;5053528;28;21107;-68
2022/10/26 09:15:47;;;;;;;1999.90;999.90;;;16.50;99.90;;;;;;5053561;28;20411;-66
2022/10/26 09:18:25;;;;;;;1999.90;999.90;;;16.60;99.90;;;;;;5055903;28;20467;-66
2022/10/26 09:21:23;;;;;;;1999.90;999.90;;;16.80;99.90;;;;;;5056813;28;20889;-68
2022/10/26 09:24:01;;;;;;;1999.90;999.90;;;16.90;99.90;;;;;;5019281;28;20449;-67
2022/10/26 09:26:35;;;;;;;1999.90;999.90;;;17.00;99.90;;;;;;5053794;28;20393;-66
2022/10/26 09:29:04;;;;;;;1999.90;999.90;;;17.10;99.90;;;;;;5053106;28;20534;-66
2022/10/26 09:31:37;;;;;;;1999.90;999.90;;;17.20;99.90;;;;;;5071794;28;20440;-68
2022/10/26 09:34:04;;;;;;;1999.90;999.90;;;17.30;99.90;;;;;;5072663;28;20417;-67
2022/10/26 09:36:30;;;;;;;1999.90;999.90;;;17.40;99.90;;;;;;5072471;28;20410;-67
2022/10/26 09:39:24;;;;;;;1999.90;999.90;;;17.50;99.90;;;;;;5065827;28;20435;-67
2022/10/26 09:42:19;;;;;;;1999.90;999.90;;;17.80;99.90;;;;;;5034855;28;20201;-67
2022/10/26 09:44:54;;;;;;;1999.90;999.90;;;17.90;99.90;;;;;;5061875;28;20568;-67
2022/10/26 09:47:36;;;;;;;1999.90;999.90;;;18.00;99.90;;;;;;5070866;28;20494;-67
2022/10/26 09:50:08;;;;;;;1999.90;999.90;;;18.20;99.90;;;;;;5068109;28;20462;-68
2022/10/26 09:52:34;;;;;;;1999.90;999.90;;;18.40;99.90;;;;;;5072605;28;20403;-68
2022/10/26 09:54:59;;;;;;;1999.90;999.90;;;18.50;99.90;;;;;;5072435;28;20452;-68
2022/10/26 09:57:25;;;;;;;1999.90;999.90;;;18.60;99.90;;;;;;5071757;28;20205;-68
2022/10/26 09:59:54;;;;;;;1999.90;999.90;;;18.80;99.90;;;;;;5071365;28;20216;-68
2022/10/26 10:02:36;;;;;;;1999.90;999.90;;;18.90;99.90;;;;;;5069991;28;20424;-69
2022/10/26 10:05:19;;;;;;;1999.90;999.90;;;19.00;99.90;;;;;;5072057;28;20459;-68
2022/10/26 10:07:44;;;;;;;1999.90;999.90;;;19.20;99.90;;;;;;5063092;28;20397;-67
2022/10/26 10:10:21;;;;;;;1999.90;999.90;;;19.20;99.90;;;;;;5072032;28;20422;-67
2022/10/26 10:12:51;;;;;;;1999.90;999.90;;;19.40;99.90;;;;;;5072454;28;20180;-67
2022/10/26 10:15:24;;;;;;;1999.90;999.90;;;19.40;99.90;;;;;;5072202;28;20411;-67
2022/10/26 10:17:52;;;;;;;1999.90;999.90;;;19.40;99.90;;;;;;5070597;28;20413;-69
2022/10/26 10:20:29;;;;;;;1999.90;999.90;;;19.60;99.90;;;;;;5071842;28;20440;-67
2022/10/26 10:22:57;;;;;;;1999.90;999.90;;;19.60;99.90;;;;;;5071965;28;20465;-66
2022/10/26 10:25:35;;;;;;;1999.90;999.90;;;19.60;99.90;;;;;;5072330;28;20401;-68
2022/10/26 10:28:18;;;;;;;1999.90;999.90;;;19.70;99.90;;;;;;5070528;28;20459;-66
2022/10/26 10:30:56;;;;;;;1999.90;999.90;;;19.80;99.90;;;;;;5072158;28;20389;-67
2022/10/26 10:33:22;;;;;;;1999.90;999.90;;;19.90;99.90;;;;;;5072286;28;20385;-66
2022/10/26 10:35:50;;;;;;;1999.90;999.90;;;20.00;99.90;;;;;;5071955;28;20485;-67
2022/10/26 10:38:19;;;;;;;1999.90;999.90;;;20.00;99.90;;;;;;5071110;28;20473;-67
2022/10/26 10:40:55;;;;;;;1999.90;999.90;;;20.10;99.90;;;;;;5063394;28;20420;-67
2022/10/26 10:43:21;;;;;;;1999.90;999.90;;;20.10;99.90;;;;;;5071860;28;20390;-67
2022/10/26 10:45:49;;;;;;;1999.90;999.90;;;20.20;99.90;;;;;;5071769;28;20408;-67
2022/10/26 10:48:19;;;;;;;1999.90;999.90;;;20.30;99.90;;;;;;5071107;28;20460;-67
2022/10/26 10:50:52;;;;;;;1999.90;999.90;;;20.30;99.90;;;;;;5071855;28;20436;-67
2022/10/26 10:53:48;;;;;;;1999.90;999.90;;;20.50;99.90;;;;;;5071669;28;20433;-67
2022/10/26 10:56:30;;;;;;;1999.90;999.90;;;20.70;99.90;;;;;;5064368;28;20784;-67
2022/10/26 10:59:08;;;;;;;1999.90;999.90;;;20.70;99.90;;;;;;5070635;28;20449;-67
2022/10/26 11:01:47;;;;;;;1999.90;999.90;;;20.70;99.90;;;;;;5071714;28;20418;-67
2022/10/26 11:04:32;;;;;;;1999.90;999.90;;;20.80;99.90;;;;;;5071630;28;20393;-67
2022/10/26 11:07:02;;;;;;;1999.90;999.90;;;20.80;99.90;;;;;;5071432;28;20919;-67
2022/10/26 11:09:30;;;;;;;1999.90;999.90;;;20.90;99.90;;;;;;5070622;28;20456;-67
2022/10/26 11:12:20;;;;;;;1999.90;999.90;;;21.10;99.90;;;;;;5068573;28;20499;-66
2022/10/26 11:15:00;;;;;;;1999.90;999.90;;;21.30;99.90;;;;;;5070801;28;20401;-66
2022/10/26 11:17:31;;;;;;;1999.90;999.90;;;21.60;99.90;;;;;;5070824;28;20395;-67
2022/10/26 11:20:01;;;;;;;1999.90;999.90;;;22.20;99.90;;;;;;5069898;28;20975;-66
2022/10/26 11:22:38;;;;;;;1999.90;999.90;;;23.00;99.90;;;;;;5070565;28;20405;-67
2022/10/26 11:25:32;;;;;;;1999.90;999.90;;;23.80;99.90;;;;;;5071107;28;20389;-67
2022/10/26 11:28:10;;;;;;;1999.90;999.90;;;24.40;99.90;;;;;;5069577;28;20502;-66
2022/10/26 11:30:44;;;;;;;1999.90;999.90;;;25.00;99.90;;;;;;5070640;28;20391;-67
2022/10/26 11:33:17;;;;;;;1999.90;999.90;;;25.70;99.90;;;;;;5070707;28;20756;-67
2022/10/26 11:35:54;;;;;;;1999.90;999.90;;;26.00;99.90;;;;;;5071025;28;20412;-67
2022/10/26 11:38:27;;;;;;;1999.90;999.90;;;26.40;99.90;;;;;;5070217;28;20389;-67
2022/10/26 11:41:00;;;;;;;1999.90;999.90;;;26.80;99.90;;;;;;5073974;28;20372;-67
2022/10/26 11:43:53;;;;;;;1999.90;999.90;;;26.80;99.90;;;;;;5074035;28;20465;-67
2022/10/26 11:46:26;;;;;;;1999.90;999.90;;;26.40;99.90;;;;;;5074156;28;20759;-67
2022/10/26 11:49:12;;;;;;;1999.90;999.90;;;26.20;99.90;;;;;;5065319;28;20835;-67
2022/10/26 11:51:47;;;;;;;1999.90;999.90;;;25.90;99.90;;;;;;5074011;28;20403;-67
2022/10/26 11:54:20;;;;;;;1999.90;999.90;;;26.00;99.90;;;;;;5074208;28;20445;-67
2022/10/26 11:56:49;;;;;;;1999.90;999.90;;;26.00;99.90;;;;;;5073663;28;20502;-67
2022/10/26 11:59:25;;;;;;;1999.90;999.90;;;26.10;99.90;;;;;;5073183;28;20448;-67
2022/10/26 12:01:55;;;;;;;1999.90;999.90;;;26.30;99.90;;;;;;5074296;28;20405;-67
2022/10/26 12:04:25;;;;;;;1999.90;999.90;;;26.30;99.90;;;;;;5073862;28;20465;-67
2022/10/26 12:06:55;;;;;;;1999.90;999.90;;;26.40;99.90;;;;;;5073440;28;20437;-67
2022/10/26 12:09:25;;;;;;;1999.90;999.90;;;26.20;99.90;;;;;;5073571;28;20532;-67
2022/10/26 12:12:07;;;;;;;1999.90;999.90;;;25.70;99.90;;;;;;5074041;28;20405;-67
2022/10/26 12:14:44;;;;;;;1999.90;999.90;;;25.30;99.90;;;;;;5073385;28;20389;-67
2022/10/26 12:17:25;;;;;;;1999.90;999.90;;;24.70;99.90;;;;;;5073525;28;20410;-66
2022/10/26 12:20:41;;;;;;;1999.90;999.90;;;24.60;99.90;;;;;;5073401;28;20470;-66